createdAt,value
2017-12-16T00:00:54.045Z,9.05
2017-12-16T00:03:20.384Z,7.32
2017-12-16T00:05:46.684Z,6.07
2017-12-16T00:08:13.059Z,7.70
2017-12-16T00:10:39.403Z,7.90
2017-12-16T00:13:05.703Z,6.95
2017-12-16T00:15:32.026Z,7.75
2017-12-16T00:17:58.662Z,7.53
2017-12-16T00:20:25.029Z,7.55
2017-12-16T00:22:51.330Z,8.88
2017-12-16T00:25:17.693Z,6.57
2017-12-16T00:27:44.016Z,6.90
2017-12-16T00:30:10.341Z,7.25
2017-12-16T00:32:36.620Z,6.87
2017-12-16T00:35:02.953Z,6.15
2017-12-16T00:37:29.276Z,5.57
2017-12-16T00:39:56.347Z,5.78
2017-12-16T00:42:22.683Z,6.20
2017-12-16T00:44:49.742Z,6.95
2017-12-16T00:47:16.046Z,6.28
2017-12-16T00:49:42.418Z,6.37
2017-12-16T00:52:08.736Z,6.47
2017-12-16T00:54:35.050Z,6.80
2017-12-16T00:57:01.382Z,7.62
2017-12-16T00:59:27.730Z,6.70
2017-12-16T01:01:54.055Z,6.15
2017-12-16T01:04:20.417Z,6.12
2017-12-16T01:06:46.756Z,6.95
2017-12-16T01:09:13.816Z,6.25
2017-12-16T01:11:40.919Z,6.15
2017-12-16T01:14:08.250Z,7.00
2017-12-16T01:16:34.562Z,6.20
2017-12-16T01:19:00.900Z,6.12
2017-12-16T01:21:27.253Z,6.00
2017-12-16T01:23:54.333Z,7.05
2017-12-16T01:26:20.652Z,5.50
2017-12-16T01:28:46.990Z,6.22
2017-12-16T01:31:13.361Z,6.07
2017-12-16T01:33:52.592Z,5.40
2017-12-16T01:36:31.217Z,5.82
2017-12-16T01:38:57.512Z,5.57
2017-12-16T01:41:23.844Z,4.72
2017-12-16T01:43:50.213Z,5.15
2017-12-16T01:46:16.501Z,5.40
2017-12-16T01:48:42.836Z,6.00
2017-12-16T01:51:09.183Z,4.80
2017-12-16T01:53:36.279Z,4.80
2017-12-16T01:56:02.610Z,4.43
2017-12-16T01:58:28.954Z,4.65
2017-12-16T02:00:55.266Z,4.60
2017-12-16T02:03:21.611Z,4.65
2017-12-16T02:05:47.945Z,16.05
2017-12-16T02:08:14.285Z,9.65
2017-12-16T02:10:40.605Z,6.62
2017-12-16T02:13:06.945Z,5.50
2017-12-16T02:15:33.327Z,5.75
2017-12-16T02:17:59.658Z,4.95
2017-12-16T02:20:26.010Z,5.45
2017-12-16T02:22:52.320Z,4.43
2017-12-16T02:25:18.656Z,5.40
2017-12-16T02:27:45.011Z,4.80
2017-12-16T02:30:11.330Z,6.50
2017-12-16T02:32:37.668Z,4.87
2017-12-16T02:35:04.029Z,5.43
2017-12-16T02:37:30.340Z,5.15
2017-12-16T02:39:56.689Z,5.20
2017-12-16T02:42:23.029Z,5.93
2017-12-16T02:44:49.359Z,5.72
2017-12-16T02:47:15.709Z,6.25
2017-12-16T02:49:42.778Z,5.45
2017-12-16T02:52:09.100Z,5.70
2017-12-16T02:54:35.453Z,5.20
2017-12-16T02:57:01.787Z,5.62
2017-12-16T02:59:28.131Z,5.43
2017-12-16T03:01:54.426Z,5.53
2017-12-16T03:04:21.477Z,4.93
2017-12-16T03:06:47.846Z,5.37
2017-12-16T03:09:14.199Z,4.90
2017-12-16T03:11:40.538Z,4.47
2017-12-16T03:14:06.890Z,5.75
2017-12-16T03:16:33.941Z,5.43
2017-12-16T03:19:00.272Z,5.97
2017-12-16T03:21:27.342Z,4.72
2017-12-16T03:23:53.676Z,5.65
2017-12-16T03:26:20.002Z,5.57
2017-12-16T03:28:46.354Z,5.80
2017-12-16T03:31:12.645Z,5.68
2017-12-16T03:33:38.991Z,5.43
2017-12-16T03:36:05.359Z,5.10
2017-12-16T03:38:31.689Z,4.78
2017-12-16T03:40:57.994Z,5.12
2017-12-16T03:43:24.365Z,5.03
2017-12-16T03:45:50.706Z,5.43
2017-12-16T03:48:17.026Z,5.00
2017-12-16T03:50:43.380Z,4.57
2017-12-16T03:53:10.434Z,5.68
2017-12-16T03:55:36.845Z,5.62
2017-12-16T03:58:03.170Z,5.22
2017-12-16T04:00:29.499Z,4.68
2017-12-16T04:02:55.849Z,4.62
2017-12-16T04:05:22.898Z,6.05
2017-12-16T04:07:49.967Z,5.12
2017-12-16T04:10:16.364Z,4.80
2017-12-16T04:12:42.701Z,4.65
2017-12-16T04:15:09.097Z,4.70
2017-12-16T04:17:35.413Z,4.10
2017-12-16T04:20:01.787Z,3.67
2017-12-16T04:22:28.163Z,3.60
2017-12-16T04:24:54.547Z,4.32
2017-12-16T04:27:20.917Z,3.08
2017-12-16T04:29:47.311Z,3.00
2017-12-16T04:32:14.378Z,2.60
2017-12-16T04:34:41.532Z,3.47
2017-12-16T04:37:08.593Z,3.35
2017-12-16T04:39:34.935Z,3.25
2017-12-16T04:42:01.295Z,3.85
2017-12-16T04:44:27.649Z,3.95
2017-12-16T04:46:54.011Z,3.87
2017-12-16T04:49:20.319Z,4.53
2017-12-16T04:51:47.368Z,4.53
2017-12-16T04:54:14.439Z,4.87
2017-12-16T04:56:41.489Z,4.75
2017-12-16T04:59:08.134Z,4.30
2017-12-16T05:01:34.422Z,4.45
2017-12-16T05:04:00.703Z,5.28
2017-12-16T05:06:27.015Z,6.53
2017-12-16T05:08:54.102Z,6.62
2017-12-16T05:11:20.390Z,6.65
2017-12-16T05:13:47.444Z,5.07
2017-12-16T05:16:13.725Z,5.68
2017-12-16T05:18:40.028Z,5.20
2017-12-16T05:21:06.363Z,5.10
2017-12-16T05:23:32.646Z,4.30
2017-12-16T05:25:59.687Z,4.70
2017-12-16T05:28:26.046Z,5.40
2017-12-16T05:30:52.321Z,5.87
2017-12-16T05:33:18.580Z,5.47
2017-12-16T05:35:44.891Z,4.93
2017-12-16T05:38:11.183Z,5.18
2017-12-16T05:40:37.489Z,5.30
2017-12-16T05:43:04.505Z,5.55
2017-12-16T05:45:30.820Z,4.85
2017-12-16T05:47:57.131Z,5.40
2017-12-16T05:50:23.522Z,5.57
2017-12-16T05:52:50.890Z,4.72
2017-12-16T05:55:17.153Z,7.00
2017-12-16T05:57:43.476Z,7.30
2017-12-16T06:00:09.799Z,7.45
2017-12-16T06:02:36.832Z,8.38
2017-12-16T06:05:03.177Z,6.97
2017-12-16T06:07:29.473Z,5.12
2017-12-16T06:09:56.522Z,4.78
2017-12-16T06:12:23.574Z,5.55
2017-12-16T06:14:49.865Z,5.35
2017-12-16T06:17:16.180Z,4.68
2017-12-16T06:19:42.509Z,5.00
2017-12-16T06:22:08.826Z,4.78
2017-12-16T06:24:35.218Z,7.20
2017-12-16T06:27:01.535Z,7.37
2017-12-16T06:29:27.830Z,5.85
2017-12-16T06:31:54.190Z,5.53
2017-12-16T06:34:20.916Z,5.68
2017-12-16T06:36:47.403Z,4.35
2017-12-16T06:39:13.779Z,4.28
2017-12-16T06:41:40.107Z,5.18
2017-12-16T06:44:06.422Z,4.07
2017-12-16T06:46:32.756Z,4.80
2017-12-16T06:48:59.075Z,4.97
2017-12-16T06:51:25.399Z,4.60
2017-12-16T06:53:51.705Z,5.30
2017-12-16T06:56:18.009Z,5.75
2017-12-16T06:58:44.302Z,5.80
2017-12-16T07:01:10.643Z,5.50
2017-12-16T07:03:36.940Z,4.97
2017-12-16T07:06:03.236Z,4.53
2017-12-16T07:08:29.536Z,6.75
2017-12-16T07:10:55.880Z,7.87
2017-12-16T07:13:22.202Z,6.40
2017-12-16T07:15:48.524Z,4.93
2017-12-16T07:18:14.824Z,4.57
2017-12-16T07:20:41.098Z,4.65
2017-12-16T07:23:07.413Z,4.95
2017-12-16T07:25:33.712Z,4.28
2017-12-16T07:28:00.044Z,4.32
2017-12-16T07:30:26.364Z,4.30
2017-12-16T07:32:52.682Z,4.62
2017-12-16T07:35:19.762Z,4.35
2017-12-16T07:37:46.493Z,5.53
2017-12-16T07:40:12.733Z,4.65
2017-12-16T07:42:39.040Z,3.60
2017-12-16T07:45:05.353Z,4.35
2017-12-16T07:47:32.381Z,3.28
2017-12-16T07:49:58.732Z,4.00
2017-12-16T07:52:25.769Z,4.57
2017-12-16T07:54:52.020Z,3.50
2017-12-16T07:57:18.356Z,4.05
2017-12-16T07:59:44.658Z,4.82
2017-12-16T08:02:11.736Z,6.70
2017-12-16T08:04:38.103Z,4.78
2017-12-16T08:07:04.413Z,5.10
2017-12-16T08:09:30.722Z,4.35
2017-12-16T08:11:57.009Z,4.32
2017-12-16T08:14:23.302Z,4.45
2017-12-16T08:16:49.596Z,4.65
2017-12-16T08:19:16.628Z,4.10
2017-12-16T08:21:42.939Z,5.20
2017-12-16T08:24:09.205Z,3.78
2017-12-16T08:26:36.354Z,3.90
2017-12-16T08:29:03.384Z,3.75
2017-12-16T08:31:30.417Z,5.03
2017-12-16T08:33:56.705Z,3.90
2017-12-16T08:36:23.013Z,4.95
2017-12-16T08:38:50.011Z,5.95
2017-12-16T08:41:16.289Z,7.10
2017-12-16T08:43:42.597Z,6.43
2017-12-16T08:46:08.879Z,6.28
2017-12-16T08:48:35.174Z,4.97
2017-12-16T08:51:01.468Z,6.00
2017-12-16T08:53:27.742Z,4.82
2017-12-16T08:55:54.037Z,4.25
2017-12-16T08:58:20.326Z,4.87
2017-12-16T09:00:46.654Z,4.70
2017-12-16T09:03:12.941Z,5.95
2017-12-16T09:05:39.945Z,5.22
2017-12-16T09:08:06.253Z,5.20
2017-12-16T09:10:32.546Z,4.37
2017-12-16T09:12:58.836Z,4.20
2017-12-16T09:15:25.079Z,4.05
2017-12-16T09:17:51.326Z,4.65
2017-12-16T09:20:17.615Z,4.15
2017-12-16T09:22:43.877Z,4.97
2017-12-16T09:25:10.198Z,5.20
2017-12-16T09:27:36.454Z,4.55
2017-12-16T09:30:03.542Z,4.55
2017-12-16T09:32:29.809Z,3.53
2017-12-16T09:34:56.107Z,3.40
2017-12-16T09:37:22.406Z,4.12
2017-12-16T09:39:48.723Z,2.87
2017-12-16T09:42:15.757Z,3.30
2017-12-16T09:44:42.779Z,3.47
2017-12-16T09:47:09.077Z,3.30
2017-12-16T09:49:35.347Z,4.05
2017-12-16T09:52:01.643Z,2.90
2017-12-16T09:54:27.920Z,3.12
2017-12-16T09:56:54.199Z,3.35
2017-12-16T09:59:20.833Z,2.65
2017-12-16T10:01:47.149Z,2.78
2017-12-16T10:04:13.459Z,2.90
2017-12-16T10:06:39.781Z,3.58
2017-12-16T10:09:06.077Z,3.60
2017-12-16T10:11:32.392Z,3.47
2017-12-16T10:13:58.676Z,3.03
2017-12-16T10:16:25.713Z,2.90
2017-12-16T10:18:51.999Z,3.65
2017-12-16T10:21:18.305Z,3.05
2017-12-16T10:23:44.654Z,3.37
2017-12-16T10:26:11.035Z,3.83
2017-12-16T10:28:39.578Z,3.00
2017-12-16T10:31:08.198Z,2.95
2017-12-16T10:33:45.551Z,2.90
2017-12-16T10:42:13.864Z,2.95
2017-12-16T10:44:40.127Z,3.00
2017-12-16T10:47:07.247Z,3.05
2017-12-16T10:49:33.572Z,2.60
2017-12-16T10:51:59.907Z,2.90
2017-12-16T11:01:13.042Z,2.95
2017-12-16T11:03:51.567Z,3.65
2017-12-16T11:06:26.116Z,3.58
2017-12-16T11:09:03.713Z,3.45
2017-12-16T11:11:38.145Z,4.03
2017-12-16T11:14:27.313Z,4.07
2017-12-16T11:16:56.108Z,3.55
2017-12-16T11:19:26.503Z,3.70
2017-12-16T11:21:55.591Z,3.00
2017-12-16T11:24:22.659Z,3.17
2017-12-16T11:27:17.306Z,14.55
2017-12-16T11:30:08.004Z,5.47
2017-12-16T11:42:07.910Z,4.30
2017-12-16T11:44:37.421Z,3.80
2017-12-16T11:50:00.287Z,3.50
2017-12-16T11:56:12.426Z,3.47
2017-12-16T11:58:38.773Z,3.60
2017-12-16T12:01:05.873Z,3.62
2017-12-16T12:03:32.304Z,3.90
2017-12-16T12:05:58.657Z,3.70
2017-12-16T12:08:25.038Z,3.95
2017-12-16T12:10:52.154Z,4.43
2017-12-16T12:13:25.366Z,4.30
2017-12-16T12:15:51.653Z,4.43
2017-12-16T12:18:18.775Z,3.90
2017-12-16T12:20:54.840Z,4.78
2017-12-16T12:23:21.180Z,3.50
2017-12-16T12:25:47.559Z,3.80
2017-12-16T12:28:13.854Z,3.92
2017-12-16T12:30:40.195Z,4.50
2017-12-16T12:33:07.569Z,4.80
2017-12-16T12:35:33.934Z,4.18
2017-12-16T12:38:00.301Z,6.75
2017-12-16T12:40:26.587Z,4.28
2017-12-16T12:42:52.865Z,4.60
2017-12-16T12:45:19.207Z,3.78
2017-12-16T12:47:45.507Z,4.72
2017-12-16T12:50:11.805Z,5.50
2017-12-16T12:52:38.113Z,5.00
2017-12-16T12:55:04.429Z,4.75
2017-12-16T12:57:31.486Z,3.55
2017-12-16T12:59:58.533Z,4.97
2017-12-16T13:02:24.842Z,4.62
2017-12-16T13:04:51.114Z,4.20
2017-12-16T13:07:17.416Z,5.15
2017-12-16T13:09:43.684Z,5.00
2017-12-16T13:12:10.006Z,4.85
2017-12-16T13:14:36.321Z,5.53
2017-12-16T13:17:02.652Z,4.37
2017-12-16T13:19:28.982Z,5.55
2017-12-16T13:21:56.010Z,5.65
2017-12-16T13:24:22.308Z,5.03
2017-12-16T13:26:48.594Z,5.45
2017-12-16T13:29:14.910Z,5.25
2017-12-16T13:31:41.193Z,5.62
2017-12-16T13:34:07.511Z,5.55
2017-12-16T13:36:33.803Z,5.47
2017-12-16T13:39:00.930Z,5.30
2017-12-16T13:41:27.362Z,5.70
2017-12-16T13:43:53.688Z,5.70
2017-12-16T13:46:20.039Z,5.60
2017-12-16T13:48:46.350Z,6.07
2017-12-16T13:51:12.668Z,6.60
2017-12-16T13:53:39.719Z,6.60
2017-12-16T13:56:06.810Z,6.37
2017-12-16T13:58:33.396Z,5.62
2017-12-16T14:00:59.826Z,5.90
2017-12-16T14:03:26.189Z,6.32
2017-12-16T14:05:52.553Z,5.70
2017-12-16T14:08:19.604Z,6.30
2017-12-16T14:10:45.887Z,6.68
2017-12-16T14:13:12.212Z,6.20
2017-12-16T14:15:38.546Z,5.25
2017-12-16T14:18:04.863Z,6.10
2017-12-16T14:20:31.132Z,5.72
2017-12-16T14:22:58.218Z,5.90
2017-12-16T14:25:24.516Z,5.85
2017-12-16T14:27:50.819Z,6.07
2017-12-16T14:30:17.142Z,4.97
2017-12-16T14:32:43.471Z,5.25
2017-12-16T14:35:10.541Z,5.30
2017-12-16T14:37:36.885Z,5.22
2017-12-16T14:40:03.301Z,5.60
2017-12-16T14:42:30.348Z,4.80
2017-12-16T14:44:56.734Z,5.47
2017-12-16T14:47:23.298Z,5.25
2017-12-16T14:49:49.654Z,4.90
2017-12-16T14:52:15.975Z,4.93
2017-12-16T14:54:42.286Z,4.75
2017-12-16T14:57:08.597Z,4.50
2017-12-16T14:59:34.914Z,4.50
2017-12-16T15:02:01.313Z,4.80
2017-12-16T15:04:28.332Z,5.20
2017-12-16T15:06:54.650Z,5.18
2017-12-16T15:09:20.977Z,5.35
2017-12-16T15:11:48.612Z,5.10
2017-12-16T15:14:15.002Z,5.18
2017-12-16T15:16:41.283Z,4.90
2017-12-16T15:19:07.597Z,5.40
2017-12-16T15:21:33.909Z,5.60
2017-12-16T15:24:00.970Z,6.25
2017-12-16T15:26:28.003Z,98.40
2017-12-16T15:28:54.394Z,48.35
2017-12-16T15:31:20.708Z,4.55
2017-12-16T15:33:48.080Z,6.47
2017-12-16T15:36:15.133Z,8.25
2017-12-16T15:38:42.201Z,11.43
2017-12-16T15:41:09.312Z,6.85
2017-12-16T15:43:35.622Z,8.25
2017-12-16T15:46:01.943Z,7.12
2017-12-16T15:48:29.322Z,7.43
2017-12-16T15:50:56.410Z,8.38
2017-12-16T15:53:22.706Z,7.87
2017-12-16T15:55:49.786Z,8.05
2017-12-16T15:58:16.093Z,8.07
2017-12-16T16:00:42.789Z,7.70
2017-12-16T16:03:09.230Z,10.13
2017-12-16T16:05:35.563Z,10.07
2017-12-16T16:08:01.903Z,10.13
2017-12-16T16:10:29.013Z,10.10
2017-12-16T16:12:55.342Z,10.48
2017-12-16T16:15:21.697Z,11.50
2017-12-16T16:17:47.998Z,9.35
2017-12-16T16:20:15.079Z,9.63
2017-12-16T16:22:41.446Z,10.63
2017-12-16T16:25:07.805Z,9.15
2017-12-16T16:27:34.210Z,10.15
2017-12-16T16:30:00.508Z,10.57
2017-12-16T16:32:26.855Z,11.50
2017-12-16T16:34:53.170Z,10.55
2017-12-16T16:37:19.517Z,10.63
2017-12-16T16:39:45.840Z,10.98
2017-12-16T16:42:12.177Z,10.25
2017-12-16T16:44:38.509Z,10.80
2017-12-16T16:47:04.817Z,10.07
2017-12-16T16:49:31.138Z,10.65
2017-12-16T16:51:57.555Z,10.30
2017-12-16T16:54:23.906Z,10.40
2017-12-16T16:56:50.188Z,9.18
2017-12-16T16:59:17.204Z,10.65
2017-12-16T17:01:43.511Z,10.82
2017-12-16T17:04:09.833Z,11.55
2017-12-16T17:06:36.914Z,11.75
2017-12-16T17:09:04.133Z,10.43
2017-12-16T17:11:30.486Z,10.98
2017-12-16T17:13:56.811Z,12.00
2017-12-16T17:16:23.173Z,13.85
2017-12-16T17:18:49.524Z,12.10
2017-12-16T17:21:16.566Z,12.80
2017-12-16T17:23:42.925Z,13.90
2017-12-16T17:26:09.212Z,24.48
2017-12-16T17:28:36.254Z,27.30
2017-12-16T17:31:02.598Z,13.70
2017-12-16T17:33:28.968Z,18.58
2017-12-16T17:35:55.317Z,19.83
2017-12-16T17:38:21.674Z,15.38
2017-12-16T17:40:48.008Z,16.40
2017-12-16T17:43:14.577Z,15.90
2017-12-16T17:45:40.933Z,12.80
2017-12-16T17:48:08.070Z,13.25
2017-12-16T17:50:34.401Z,14.00
2017-12-16T17:53:00.765Z,15.88
2017-12-16T17:55:27.130Z,16.73
2017-12-16T17:57:54.173Z,16.50
2017-12-16T18:00:20.509Z,16.60
2017-12-16T18:02:46.903Z,16.62
2017-12-16T18:05:17.002Z,17.45
2017-12-16T18:07:44.049Z,15.98
2017-12-16T18:10:10.725Z,18.00
2017-12-16T18:12:37.814Z,16.20
2017-12-16T18:15:04.139Z,16.27
2017-12-16T18:17:30.487Z,18.23
2017-12-16T18:19:56.816Z,20.40
2017-12-16T18:22:23.891Z,16.87
2017-12-16T18:24:50.230Z,18.10
2017-12-16T18:27:16.615Z,19.75
2017-12-16T18:29:42.962Z,17.08
2017-12-16T18:32:09.286Z,17.65
2017-12-16T18:34:35.650Z,17.45
2017-12-16T18:37:02.033Z,17.90
2017-12-16T18:39:29.066Z,18.12
2017-12-16T18:41:55.383Z,18.62
2017-12-16T18:44:21.732Z,18.85
2017-12-16T18:46:48.075Z,18.90
2017-12-16T18:49:14.389Z,17.45
2017-12-16T18:51:40.764Z,18.85
2017-12-16T18:54:07.191Z,18.80
2017-12-16T18:56:33.602Z,19.95
2017-12-16T18:58:59.980Z,21.90
2017-12-16T19:01:26.285Z,20.37
2017-12-16T19:03:53.408Z,19.70
2017-12-16T19:06:19.771Z,22.60
2017-12-16T19:08:47.162Z,18.45
2017-12-16T19:11:13.496Z,19.95
2017-12-16T19:13:40.654Z,20.92
2017-12-16T19:16:07.759Z,19.65
2017-12-16T19:18:34.117Z,20.90
2017-12-16T19:21:00.536Z,20.23
2017-12-16T19:23:26.938Z,17.30
2017-12-16T19:25:54.058Z,18.33
2017-12-16T19:28:20.470Z,16.87
2017-12-16T19:30:46.874Z,19.27
2017-12-16T19:33:13.173Z,18.73
2017-12-16T19:35:39.629Z,18.55
2017-12-16T19:38:06.769Z,19.05
2017-12-16T19:40:33.109Z,19.27
2017-12-16T19:42:59.461Z,20.42
2017-12-16T19:45:25.841Z,18.90
2017-12-16T19:47:52.227Z,19.73
2017-12-16T19:50:19.420Z,18.30
2017-12-16T19:52:45.824Z,22.98
2017-12-16T19:55:12.264Z,19.92
2017-12-16T19:57:38.664Z,17.77
2017-12-16T20:00:05.195Z,18.52
2017-12-16T20:02:31.820Z,16.23
2017-12-16T20:04:58.491Z,19.12
2017-12-16T20:07:25.196Z,19.20
2017-12-16T20:09:51.800Z,19.23
2017-12-16T20:12:18.466Z,16.87
2017-12-16T20:14:45.898Z,20.05
2017-12-16T20:17:12.584Z,21.05
2017-12-16T20:19:40.068Z,18.52
2017-12-16T20:22:07.536Z,19.02
2017-12-16T20:24:35.024Z,19.90
2017-12-16T20:27:01.768Z,20.17
2017-12-16T20:29:28.795Z,19.45
2017-12-16T20:31:56.248Z,17.73
2017-12-16T20:34:22.925Z,17.17
2017-12-16T20:36:50.434Z,19.00
2017-12-16T20:39:17.088Z,17.77
2017-12-16T20:41:43.800Z,18.52
2017-12-16T20:44:11.223Z,23.48
2017-12-16T20:46:37.987Z,23.65
2017-12-16T20:49:04.688Z,23.23
2017-12-16T20:51:32.118Z,33.78
2017-12-16T20:53:58.823Z,28.85
2017-12-16T20:56:25.552Z,23.98
2017-12-16T20:58:52.942Z,22.98
2017-12-16T21:01:19.864Z,21.02
2017-12-16T21:03:46.467Z,31.00
2017-12-16T21:06:13.105Z,32.75
2017-12-16T21:08:39.798Z,30.23
2017-12-16T21:11:06.511Z,29.37
2017-12-16T21:13:33.252Z,38.88
2017-12-16T21:15:59.993Z,32.63
2017-12-16T21:18:26.718Z,30.33
2017-12-16T21:20:53.339Z,30.62
2017-12-16T21:23:21.045Z,31.80
2017-12-16T21:25:47.464Z,25.92
2017-12-16T21:28:13.855Z,21.05
2017-12-16T21:30:40.257Z,22.40
2017-12-16T21:33:06.703Z,26.10
2017-12-16T21:35:33.097Z,27.05
2017-12-16T21:37:59.429Z,23.55
2017-12-16T21:40:25.763Z,27.13
2017-12-16T21:42:52.113Z,28.25
2017-12-16T21:45:18.493Z,27.37
2017-12-16T21:47:45.584Z,25.77
2017-12-16T21:50:11.961Z,36.25
2017-12-16T21:52:38.296Z,26.73
2017-12-16T21:55:04.632Z,22.80
2017-12-16T21:57:31.004Z,20.85
2017-12-16T21:59:57.353Z,19.30
2017-12-16T22:02:23.753Z,19.90
2017-12-16T22:04:50.096Z,21.30
2017-12-16T22:07:16.414Z,19.75
2017-12-16T22:09:43.476Z,26.83
2017-12-16T22:12:09.838Z,21.90
2017-12-16T22:14:36.114Z,18.62
2017-12-16T22:17:02.446Z,23.58
2017-12-16T22:19:28.751Z,30.75
2017-12-16T22:21:55.718Z,21.10
2017-12-16T22:24:21.972Z,21.27
2017-12-16T22:26:48.348Z,23.38
2017-12-16T22:29:14.711Z,22.35
2017-12-16T22:31:40.979Z,26.75
2017-12-16T22:34:08.007Z,24.98
2017-12-16T22:36:34.319Z,24.20
2017-12-16T22:39:00.673Z,22.98
2017-12-16T22:41:26.988Z,21.35
2017-12-16T22:43:53.332Z,15.90
2017-12-16T22:46:19.659Z,19.95
2017-12-16T22:48:46.008Z,23.25
2017-12-16T22:51:12.313Z,23.40
2017-12-16T22:53:38.599Z,26.02
2017-12-16T22:56:04.953Z,22.27
2017-12-16T22:58:31.990Z,19.73
2017-12-16T23:00:58.289Z,21.33
2017-12-16T23:03:24.643Z,20.92
2017-12-16T23:05:50.962Z,19.52
2017-12-16T23:08:17.281Z,20.08
2017-12-16T23:10:43.613Z,21.62
2017-12-16T23:13:09.892Z,19.02
2017-12-16T23:15:36.220Z,22.90
2017-12-16T23:18:02.515Z,22.52
2017-12-16T23:20:29.572Z,21.58
2017-12-16T23:22:56.634Z,19.17
2017-12-16T23:25:23.702Z,21.65
2017-12-16T23:27:50.012Z,21.35
2017-12-16T23:30:16.322Z,21.58
2017-12-16T23:32:42.656Z,20.00
2017-12-16T23:35:08.992Z,18.67
2017-12-16T23:37:35.335Z,18.90
2017-12-16T23:40:01.639Z,18.87
2017-12-16T23:42:27.979Z,17.80
2017-12-16T23:44:54.253Z,17.90
2017-12-16T23:47:20.644Z,18.40
2017-12-16T23:49:46.948Z,17.55
2017-12-16T23:52:13.273Z,18.15
2017-12-16T23:54:39.583Z,17.60
2017-12-16T23:57:05.941Z,17.50
2017-12-16T23:59:33.012Z,17.77
